Time;durP1;ratioP1;P1;durP2;ratioP2;P2;SDS_P1;SDS_P2;PMS_P1;PMS_P2;Temp;Humidity;BMP_temperature;BMP_pressure;BME280_temperature;BME280_humidity;BME280_pressure;Samples;Min_cycle;Max_cycle;Signal;HPM_P1;HPM_P2
2023/10/26 00:01:26;;;;;;;4.20;0.68;;;10.80;99.90;;;;;;5011226;28;20036;-70
2023/10/26 00:03:51;;;;;;;2.30;0.95;;;10.80;99.90;;;;;;5029371;28;20529;-70
2023/10/26 00:06:17;;;;;;;2.08;0.60;;;10.70;99.90;;;;;;5009337;28;20034;-70
2023/10/26 00:08:43;;;;;;;3.70;0.50;;;10.70;99.90;;;;;;5010486;28;20037;-70
2023/10/26 00:11:08;;;;;;;3.38;0.50;;;10.80;99.90;;;;;;5011980;28;20390;-70
2023/10/26 00:13:34;;;;;;;3.95;0.80;;;10.80;99.90;;;;;;5019392;28;20460;-70
2023/10/26 00:15:59;;;;;;;2.20;0.60;;;10.80;99.90;;;;;;5013238;28;20026;-70
2023/10/26 00:18:25;;;;;;;1.48;0.55;;;10.80;99.90;;;;;;5027303;28;20038;-70
2023/10/26 00:21:00;;;;;;;1.77;0.52;;;10.80;99.90;;;;;;5022364;28;20030;-70
2023/10/26 00:23:26;;;;;;;1.50;0.88;;;10.80;99.90;;;;;;5022376;28;20082;-70
2023/10/26 00:25:53;;;;;;;0.70;0.35;;;10.80;99.90;;;;;;5028482;28;20470;-70
2023/10/26 00:28:19;;;;;;;1.90;0.40;;;10.70;99.90;;;;;;5017714;28;20065;-70
2023/10/26 00:30:44;;;;;;;1.23;0.55;;;10.80;99.90;;;;;;5022501;28;20517;-70
2023/10/26 00:33:10;;;;;;;3.20;0.52;;;10.90;99.90;;;;;;5016676;28;20137;-70
2023/10/26 00:35:36;;;;;;;3.03;0.70;;;10.90;99.90;;;;;;5010126;28;20390;-72
2023/10/26 00:38:01;;;;;;;1.48;0.70;;;11.00;99.90;;;;;;5017499;28;20026;-70
2023/10/26 00:40:27;;;;;;;2.42;0.65;;;10.90;99.90;;;;;;5019372;28;20037;-70
2023/10/26 00:43:04;;;;;;;3.70;0.65;;;11.00;99.90;;;;;;5009092;28;20048;-70
2023/10/26 00:45:35;;;;;;;2.60;0.60;;;11.10;99.90;;;;;;4994035;28;20022;-70
2023/10/26 00:48:01;;;;;;;2.10;0.77;;;11.10;99.90;;;;;;5027005;28;20017;-70
2023/10/26 00:50:27;;;;;;;6.20;0.73;;;11.10;99.90;;;;;;5022425;28;20152;-70
2023/10/26 00:52:54;;;;;;;1.73;0.70;;;11.00;99.90;;;;;;5015120;28;20042;-70
2023/10/26 00:55:20;;;;;;;3.70;0.77;;;11.10;99.90;;;;;;5026781;28;20100;-70
2023/10/26 00:57:46;;;;;;;1.55;0.52;;;11.10;99.90;;;;;;5009329;28;20034;-70
2023/10/26 01:00:12;;;;;;;2.33;0.70;;;11.00;99.90;;;;;;5013664;28;20579;-70
2023/10/26 01:02:38;;;;;;;2.22;0.60;;;11.00;99.90;;;;;;5023345;28;20093;-70
2023/10/26 01:05:04;;;;;;;3.47;1.13;;;11.10;99.90;;;;;;5018287;28;20026;-69
2023/10/26 01:07:30;;;;;;;2.38;0.77;;;11.00;99.90;;;;;;5024972;28;20037;-70
2023/10/26 01:09:56;;;;;;;1.90;0.90;;;11.10;99.90;;;;;;5023010;28;20030;-70
2023/10/26 01:12:22;;;;;;;4.72;0.70;;;11.10;99.90;;;;;;5021875;28;20044;-70
2023/10/26 01:14:48;;;;;;;1.92;0.50;;;11.10;99.90;;;;;;5020172;28;20050;-70
2023/10/26 01:17:14;;;;;;;1.58;0.60;;;11.00;99.90;;;;;;5017430;28;20029;-70
2023/10/26 01:19:43;;;;;;;2.30;0.85;;;11.00;99.90;;;;;;5009575;28;20025;-70
2023/10/26 01:22:09;;;;;;;9.57;0.60;;;11.00;99.90;;;;;;5023309;28;20093;-70
2023/10/26 01:24:35;;;;;;;3.45;0.70;;;11.10;99.90;;;;;;5010342;28;20114;-70
2023/10/26 01:27:01;;;;;;;0.88;0.47;;;11.00;99.90;;;;;;5014153;28;20057;-70
2023/10/26 01:29:27;;;;;;;2.38;0.90;;;10.90;99.90;;;;;;5022842;28;20446;-70
2023/10/26 01:31:52;;;;;;;1.98;0.73;;;10.90;99.90;;;;;;4992641;28;20034;-71
2023/10/26 01:34:18;;;;;;;3.22;0.80;;;10.80;99.90;;;;;;5009014;28;20108;-69
2023/10/26 01:36:44;;;;;;;1.75;0.82;;;10.80;99.90;;;;;;5026370;28;20057;-70
2023/10/26 01:39:10;;;;;;;2.05;0.65;;;10.70;99.90;;;;;;5009951;28;20581;-70
2023/10/26 01:41:35;;;;;;;3.53;0.70;;;10.70;99.90;;;;;;5013039;28;20501;-69
2023/10/26 01:44:02;;;;;;;0.80;0.50;;;10.70;99.90;;;;;;5012579;28;20034;-70
2023/10/26 01:46:27;;;;;;;1.25;0.50;;;10.70;99.90;;;;;;5016770;28;20034;-70
2023/10/26 01:48:53;;;;;;;3.03;0.90;;;10.70;99.90;;;;;;5009485;28;20139;-70
2023/10/26 01:51:19;;;;;;;2.88;0.88;;;10.70;99.90;;;;;;4991920;28;20042;-70
2023/10/26 01:53:44;;;;;;;2.33;0.70;;;10.70;99.90;;;;;;5008790;28;20033;-70
2023/10/26 01:56:10;;;;;;;3.78;0.85;;;10.60;99.90;;;;;;5010003;28;20293;-70
2023/10/26 01:58:36;;;;;;;2.17;0.50;;;10.50;99.90;;;;;;5008160;28;20475;-70
2023/10/26 02:01:01;;;;;;;3.83;0.50;;;10.60;99.90;;;;;;4995578;28;20022;-70
2023/10/26 02:03:27;;;;;;;1.95;0.80;;;10.60;99.90;;;;;;5014183;28;20091;-70
2023/10/26 02:05:53;;;;;;;3.35;0.77;;;10.50;99.90;;;;;;5021113;28;20022;-70
2023/10/26 02:08:18;;;;;;;2.33;0.77;;;10.50;99.90;;;;;;5016109;28;20716;-69
2023/10/26 02:10:44;;;;;;;2.83;0.90;;;10.50;99.90;;;;;;5005400;28;20540;-70
2023/10/26 02:13:10;;;;;;;1.23;0.55;;;10.40;99.90;;;;;;5011833;28;20068;-70
2023/10/26 02:15:35;;;;;;;5.03;0.90;;;10.40;99.90;;;;;;4996594;28;20029;-70
2023/10/26 02:18:01;;;;;;;3.40;0.82;;;10.30;99.90;;;;;;5013822;28;20048;-70
2023/10/26 02:20:27;;;;;;;6.03;0.80;;;10.30;99.90;;;;;;5022561;28;20393;-71
2023/10/26 02:22:53;;;;;;;2.63;0.68;;;10.40;99.90;;;;;;5014283;28;20537;-72
2023/10/26 02:25:20;;;;;;;1.70;0.60;;;10.40;99.90;;;;;;4995821;28;20052;-72
2023/10/26 02:27:45;;;;;;;3.70;0.88;;;10.40;99.90;;;;;;5020568;28;20112;-70
2023/10/26 02:30:12;;;;;;;1.73;0.70;;;10.30;99.90;;;;;;5012445;28;20033;-72
2023/10/26 02:32:39;;;;;;;1.20;0.55;;;10.40;99.90;;;;;;5023961;28;20033;-70
2023/10/26 02:35:05;;;;;;;1.92;0.88;;;10.40;99.90;;;;;;5002842;28;20029;-70
2023/10/26 02:37:32;;;;;;;2.00;0.57;;;10.30;99.90;;;;;;4995146;28;20084;-70
2023/10/26 02:39:58;;;;;;;5.03;0.80;;;10.20;99.90;;;;;;5012182;28;20470;-70
2023/10/26 02:42:24;;;;;;;3.63;0.90;;;10.20;99.90;;;;;;5012984;28;20045;-70
2023/10/26 02:44:49;;;;;;;3.58;0.77;;;10.10;99.90;;;;;;5016830;28;20034;-70
2023/10/26 02:47:15;;;;;;;4.20;1.00;;;10.10;99.90;;;;;;5015806;28;20037;-70
2023/10/26 02:49:41;;;;;;;4.10;1.00;;;10.10;99.90;;;;;;5031925;28;20060;-70
2023/10/26 02:52:06;;;;;;;5.60;1.25;;;10.00;99.90;;;;;;5017983;28;20033;-70
2023/10/26 02:54:32;;;;;;;2.70;0.85;;;9.90;99.90;;;;;;5005921;28;20034;-70
2023/10/26 02:56:57;;;;;;;3.17;1.10;;;9.90;99.90;;;;;;5017189;28;20032;-70
2023/10/26 02:59:23;;;;;;;3.58;0.90;;;9.90;99.90;;;;;;5028238;28;20112;-70
2023/10/26 03:01:49;;;;;;;4.82;1.00;;;9.90;99.90;;;;;;5016475;28;20026;-70
2023/10/26 03:04:14;;;;;;;3.22;0.60;;;9.90;99.90;;;;;;5010982;28;20661;-70
2023/10/26 03:06:40;;;;;;;1.48;0.80;;;9.90;99.90;;;;;;5006933;28;20429;-70
2023/10/26 03:09:08;;;;;;;4.95;0.90;;;9.90;99.90;;;;;;4993027;28;20065;-70
2023/10/26 03:11:35;;;;;;;1.33;0.70;;;9.90;99.90;;;;;;5018799;28;20609;-70
2023/10/26 03:14:00;;;;;;;5.78;0.82;;;10.00;99.90;;;;;;5017096;28;20100;-70
2023/10/26 03:16:26;;;;;;;3.33;0.70;;;10.10;99.90;;;;;;5010452;28;20030;-70
2023/10/26 03:18:52;;;;;;;1.70;0.73;;;10.30;99.90;;;;;;5011558;28;20030;-70
2023/10/26 03:21:20;;;;;;;0.70;0.43;;;10.40;99.90;;;;;;5010441;28;20026;-70
2023/10/26 03:23:52;;;;;;;2.42;0.80;;;10.40;99.90;;;;;;5011320;28;20497;-69
2023/10/26 03:26:18;;;;;;;3.20;0.80;;;10.40;99.90;;;;;;5010486;28;20110;-70
2023/10/26 03:28:44;;;;;;;4.20;0.70;;;10.50;99.90;;;;;;4998811;28;20475;-70
2023/10/26 03:31:11;;;;;;;4.88;0.57;;;10.50;99.90;;;;;;5010479;28;20040;-70
2023/10/26 03:33:36;;;;;;;4.47;0.63;;;10.50;99.90;;;;;;5009478;28;20532;-70
2023/10/26 03:36:02;;;;;;;2.10;0.70;;;10.50;99.90;;;;;;4988986;28;20038;-70
2023/10/26 03:38:28;;;;;;;1.90;0.55;;;10.50;99.90;;;;;;5009145;28;20029;-70
2023/10/26 03:40:53;;;;;;;0.98;0.50;;;10.40;99.90;;;;;;5009229;28;20030;-71
2023/10/26 03:43:19;;;;;;;2.22;0.55;;;10.40;99.90;;;;;;5009920;28;20686;-71
2023/10/26 03:45:45;;;;;;;1.85;0.50;;;10.40;99.90;;;;;;5011089;28;20109;-70
2023/10/26 03:48:11;;;;;;;1.80;0.65;;;10.40;99.90;;;;;;5009376;28;20430;-70
2023/10/26 03:50:37;;;;;;;2.53;0.60;;;10.50;99.90;;;;;;5010684;28;20037;-70
2023/10/26 03:53:03;;;;;;;2.55;0.77;;;10.50;99.90;;;;;;5009934;28;20757;-71
2023/10/26 03:55:28;;;;;;;2.38;0.77;;;10.50;99.90;;;;;;4993163;28;20116;-70
2023/10/26 03:57:54;;;;;;;2.08;0.55;;;10.50;99.90;;;;;;5010625;28;20085;-70
2023/10/26 04:00:20;;;;;;;4.85;0.60;;;10.50;99.90;;;;;;4989104;28;20112;-69
2023/10/26 04:02:46;;;;;;;1.15;0.40;;;10.50;99.90;;;;;;5009322;28;20076;-70
2023/10/26 04:05:12;;;;;;;0.98;0.52;;;10.60;99.90;;;;;;5009419;28;20064;-71
2023/10/26 04:07:38;;;;;;;1.80;0.70;;;10.60;99.90;;;;;;5006429;28;20504;-69
2023/10/26 04:10:06;;;;;;;2.03;0.80;;;10.50;99.90;;;;;;5008523;28;20087;-69
2023/10/26 04:12:31;;;;;;;2.28;0.50;;;10.60;99.90;;;;;;4995161;28;20073;-68
2023/10/26 04:14:57;;;;;;;5.53;0.50;;;10.60;99.90;;;;;;5000613;28;20463;-71
2023/10/26 04:17:23;;;;;;;1.33;0.50;;;10.70;99.90;;;;;;5010975;28;20026;-70
2023/10/26 04:19:48;;;;;;;3.90;1.00;;;10.60;99.90;;;;;;5010270;28;20621;-71
2023/10/26 04:22:14;;;;;;;3.40;0.57;;;10.60;99.90;;;;;;4985637;28;20458;-70
2023/10/26 04:24:39;;;;;;;2.75;0.57;;;10.60;99.90;;;;;;5019469;28;20064;-70
2023/10/26 04:27:05;;;;;;;1.77;0.40;;;10.60;99.90;;;;;;5016684;28;20041;-71
2023/10/26 04:29:31;;;;;;;2.10;0.50;;;10.60;99.90;;;;;;5010222;28;20104;-71
2023/10/26 04:31:57;;;;;;;2.03;0.32;;;10.60;99.90;;;;;;4999769;28;20776;-70
2023/10/26 04:34:23;;;;;;;0.60;0.28;;;10.60;99.90;;;;;;5010019;28;20021;-71
2023/10/26 04:36:48;;;;;;;1.55;0.30;;;10.70;99.90;;;;;;4999769;28;20040;-71
2023/10/26 04:39:15;;;;;;;3.28;0.60;;;10.70;99.90;;;;;;4990798;28;20033;-71
2023/10/26 04:41:41;;;;;;;2.05;0.50;;;10.60;99.90;;;;;;5009227;28;20024;-71
2023/10/26 04:44:07;;;;;;;2.22;0.60;;;10.60;99.90;;;;;;4991076;28;20285;-70
2023/10/26 04:46:33;;;;;;;3.72;0.50;;;10.50;99.90;;;;;;5008547;28;20474;-72
2023/10/26 04:48:59;;;;;;;2.30;0.40;;;10.50;99.90;;;;;;5011141;28;20060;-71
2023/10/26 04:51:24;;;;;;;2.20;0.35;;;10.50;99.90;;;;;;5002312;28;20130;-72
2023/10/26 04:53:51;;;;;;;1.15;0.50;;;10.40;99.90;;;;;;5013754;28;20038;-71
2023/10/26 04:56:16;;;;;;;3.67;0.57;;;10.40;99.90;;;;;;5010645;28;20021;-71
2023/10/26 04:58:43;;;;;;;1.83;0.52;;;10.40;99.90;;;;;;5029218;28;20552;-70
2023/10/26 05:01:09;;;;;;;2.25;0.60;;;10.40;99.90;;;;;;4995132;28;20029;-71
2023/10/26 05:03:34;;;;;;;1.23;0.65;;;10.40;99.90;;;;;;5013297;28;20033;-71
2023/10/26 05:06:00;;;;;;;4.65;0.77;;;10.40;99.90;;;;;;5006641;28;20029;-71
2023/10/26 05:08:26;;;;;;;1.85;0.57;;;10.30;99.90;;;;;;4991725;28;20042;-71
2023/10/26 05:10:52;;;;;;;4.13;0.70;;;10.30;99.90;;;;;;5008683;28;20390;-72
2023/10/26 05:13:17;;;;;;;1.67;0.43;;;10.20;99.90;;;;;;5010429;28;20057;-71
2023/10/26 05:15:44;;;;;;;1.45;0.70;;;10.20;99.90;;;;;;5006804;28;20541;-70
2023/10/26 05:18:10;;;;;;;4.53;0.70;;;10.10;99.90;;;;;;4997852;28;20060;-71
2023/10/26 05:20:35;;;;;;;4.22;0.80;;;10.10;99.90;;;;;;5014100;28;20057;-70
2023/10/26 05:23:02;;;;;;;4.13;0.70;;;10.10;99.90;;;;;;5015346;28;20021;-72
2023/10/26 05:25:28;;;;;;;3.38;0.77;;;10.00;99.90;;;;;;5007156;28;20033;-71
2023/10/26 05:27:54;;;;;;;1.83;0.80;;;10.00;99.90;;;;;;5005485;28;20026;-71
2023/10/26 05:30:19;;;;;;;2.15;0.65;;;9.90;99.90;;;;;;5011393;28;20364;-70
2023/10/26 05:32:45;;;;;;;1.70;0.63;;;9.90;99.90;;;;;;5009210;28;20045;-71
2023/10/26 05:35:11;;;;;;;1.88;0.70;;;9.90;99.90;;;;;;5008099;28;20041;-72
2023/10/26 05:37:37;;;;;;;4.13;0.93;;;9.90;99.90;;;;;;5014449;28;20031;-71
2023/10/26 05:40:04;;;;;;;1.83;0.70;;;9.80;99.90;;;;;;4989507;28;20360;-72
2023/10/26 05:42:30;;;;;;;3.90;0.82;;;9.80;99.90;;;;;;4989222;28;20026;-69
2023/10/26 05:44:56;;;;;;;2.78;0.50;;;9.80;99.90;;;;;;5008450;28;20037;-71
2023/10/26 05:47:22;;;;;;;2.00;0.70;;;9.80;99.90;;;;;;5013174;28;20038;-71
2023/10/26 05:49:48;;;;;;;2.38;0.75;;;9.80;99.90;;;;;;4991300;28;20172;-71
2023/10/26 05:52:13;;;;;;;3.17;0.90;;;9.80;99.90;;;;;;5007553;28;20045;-71
2023/10/26 05:54:39;;;;;;;6.80;1.00;;;9.80;99.90;;;;;;5008641;28;20422;-70
2023/10/26 05:57:05;;;;;;;1.73;0.60;;;9.70;99.90;;;;;;5019745;28;20044;-73
2023/10/26 05:59:30;;;;;;;2.63;0.70;;;9.70;99.90;;;;;;5014036;28;20068;-71
2023/10/26 06:01:56;;;;;;;4.30;0.82;;;9.60;99.90;;;;;;5008852;28;20385;-72
2023/10/26 06:04:22;;;;;;;9.88;0.70;;;9.60;99.90;;;;;;5010304;28;20025;-74
2023/10/26 06:06:47;;;;;;;3.35;1.00;;;9.60;99.90;;;;;;5012979;28;20669;-74
2023/10/26 06:09:13;;;;;;;1.52;0.70;;;9.50;99.90;;;;;;5024724;28;20032;-73
2023/10/26 06:11:39;;;;;;;3.42;0.82;;;9.50;99.90;;;;;;5032385;28;20579;-74
2023/10/26 06:14:05;;;;;;;2.65;0.65;;;9.60;99.90;;;;;;5014742;28;20053;-75
2023/10/26 06:16:30;;;;;;;6.47;0.70;;;9.50;99.90;;;;;;5012323;28;20029;-72
2023/10/26 06:18:56;;;;;;;2.00;0.70;;;9.60;99.90;;;;;;4995036;28;20030;-72
2023/10/26 06:21:22;;;;;;;2.15;0.73;;;9.60;99.90;;;;;;4990654;28;20376;-71
2023/10/26 06:23:47;;;;;;;2.70;0.73;;;9.50;99.90;;;;;;4994877;28;20049;-72
2023/10/26 06:26:13;;;;;;;3.63;1.00;;;9.50;99.90;;;;;;5011328;28;20072;-71
2023/10/26 06:28:38;;;;;;;1.42;0.68;;;9.50;99.90;;;;;;5011897;28;20124;-73
2023/10/26 06:31:11;;;;;;;1.30;0.65;;;9.50;99.90;;;;;;5020646;28;20057;-72
2023/10/26 06:33:37;;;;;;;4.40;0.80;;;9.50;99.90;;;;;;5014406;28;20042;-73
2023/10/26 06:36:03;;;;;;;4.10;0.80;;;9.50;99.90;;;;;;5032176;28;20091;-73
2023/10/26 06:38:29;;;;;;;2.03;0.77;;;9.50;99.90;;;;;;5030971;28;20031;-72
2023/10/26 06:40:55;;;;;;;1.45;0.60;;;9.60;99.90;;;;;;5021280;28;20101;-70
2023/10/26 06:43:22;;;;;;;1.45;0.60;;;9.60;99.90;;;;;;5010832;28;20030;-72
2023/10/26 06:45:48;;;;;;;2.63;1.05;;;9.60;99.90;;;;;;5012025;28;20026;-72
2023/10/26 06:48:13;;;;;;;2.88;1.00;;;9.70;99.90;;;;;;5011401;28;20471;-71
2023/10/26 06:50:39;;;;;;;2.13;1.10;;;9.70;99.90;;;;;;5018255;28;20101;-70
2023/10/26 06:53:05;;;;;;;4.05;0.85;;;9.70;99.90;;;;;;5011448;28;20038;-70
2023/10/26 06:55:33;;;;;;;3.88;1.10;;;9.70;99.90;;;;;;5027564;28;20025;-70
2023/10/26 06:57:59;;;;;;;5.38;1.10;;;9.80;99.90;;;;;;5019946;28;20033;-69
2023/10/26 07:00:25;;;;;;;5.22;1.10;;;9.80;99.90;;;;;;5027509;28;20045;-69
2023/10/26 07:02:50;;;;;;;3.90;1.13;;;9.80;99.90;;;;;;5011789;28;20033;-71
2023/10/26 07:05:16;;;;;;;2.45;1.23;;;9.80;99.90;;;;;;5011082;28;20105;-71
2023/10/26 07:07:42;;;;;;;4.10;1.27;;;9.80;99.90;;;;;;5012795;28;20041;-71
2023/10/26 07:10:14;;;;;;;7.55;1.60;;;9.80;99.90;;;;;;5031598;28;20025;-70
2023/10/26 07:12:42;;;;;;;3.65;1.52;;;9.90;99.90;;;;;;5020330;28;20049;-74
2023/10/26 07:15:08;;;;;;;4.85;2.38;;;10.00;99.90;;;;;;5016251;28;20466;-72
2023/10/26 07:17:34;;;;;;;8.43;5.10;;;10.00;99.90;;;;;;5010513;28;20125;-73
2023/10/26 07:20:02;;;;;;;10.73;5.88;;;10.10;99.90;;;;;;5011657;28;20018;-70
2023/10/26 07:22:28;;;;;;;8.80;6.03;;;10.10;99.90;;;;;;5019536;28;20034;-70
2023/10/26 07:24:53;;;;;;;6.60;4.32;;;10.20;99.90;;;;;;5010818;28;20033;-70
2023/10/26 07:27:19;;;;;;;7.28;4.13;;;10.20;99.90;;;;;;5010385;28;20041;-70
2023/10/26 07:29:46;;;;;;;4.70;2.65;;;10.20;99.90;;;;;;5009450;28;20022;-70
2023/10/26 07:32:12;;;;;;;7.28;2.60;;;10.20;99.90;;;;;;5008840;28;20026;-75
2023/10/26 07:34:37;;;;;;;4.95;2.55;;;10.30;99.90;;;;;;5010914;28;20418;-73
2023/10/26 07:37:03;;;;;;;7.90;3.53;;;10.30;99.90;;;;;;5011139;28;20034;-74
2023/10/26 07:39:35;;;;;;;9.95;4.45;;;10.40;99.90;;;;;;4992902;28;20213;-74
2023/10/26 07:42:01;;;;;;;9.07;2.38;;;10.50;99.90;;;;;;5011297;28;20096;-74
2023/10/26 07:44:27;;;;;;;3.30;1.67;;;10.50;99.90;;;;;;5010773;28;20493;-73
2023/10/26 07:46:53;;;;;;;7.10;1.70;;;10.40;99.90;;;;;;5010913;28;20034;-75
2023/10/26 07:49:18;;;;;;;3.75;1.40;;;10.40;99.90;;;;;;5010155;28;20045;-73
2023/10/26 07:51:44;;;;;;;3.03;1.42;;;10.30;99.90;;;;;;5010804;28;20034;-73
2023/10/26 07:54:10;;;;;;;4.50;1.70;;;10.30;99.90;;;;;;5013647;28;20036;-75
2023/10/26 07:56:38;;;;;;;3.25;1.55;;;10.30;99.90;;;;;;5018960;28;20060;-71
2023/10/26 07:59:03;;;;;;;4.55;1.85;;;10.40;99.90;;;;;;5010831;28;20153;-72
2023/10/26 08:01:29;;;;;;;11.05;1.80;;;10.50;99.90;;;;;;5006909;28;20038;-71
2023/10/26 08:03:55;;;;;;;9.93;2.40;;;10.60;99.90;;;;;;5009744;28;20059;-70
2023/10/26 08:06:21;;;;;;;47.95;6.13;;;10.80;99.90;;;;;;5009498;28;20373;-72
2023/10/26 08:08:46;;;;;;;72.32;10.63;;;10.80;99.90;;;;;;4992887;28;20029;-71
2023/10/26 08:11:14;;;;;;;33.92;12.23;;;10.90;99.90;;;;;;5010144;28;20034;-71
2023/10/26 08:13:40;;;;;;;58.67;24.52;;;11.00;99.90;;;;;;5009544;28;20060;-72
2023/10/26 08:16:06;;;;;;;83.53;30.50;;;11.00;99.90;;;;;;5010043;28;20528;-72
2023/10/26 08:18:33;;;;;;;53.80;21.00;;;11.00;99.90;;;;;;5009154;28;20030;-73
2023/10/26 08:20:59;;;;;;;54.63;20.75;;;11.00;99.90;;;;;;5009569;28;20065;-74
2023/10/26 08:23:25;;;;;;;35.50;14.95;;;11.10;99.90;;;;;;5010550;28;20033;-73
2023/10/26 08:25:50;;;;;;;15.15;7.22;;;11.10;99.90;;;;;;5024728;28;20026;-73
2023/10/26 08:28:16;;;;;;;16.77;6.10;;;11.20;99.90;;;;;;5009093;28;20029;-73
2023/10/26 08:30:42;;;;;;;13.10;5.40;;;11.40;99.90;;;;;;5010160;28;20036;-73
2023/10/26 08:33:08;;;;;;;6.40;3.00;;;11.50;99.90;;;;;;5009939;28;20038;-73
2023/10/26 08:35:34;;;;;;;6.93;4.05;;;11.60;99.90;;;;;;5024819;28;20646;-73
2023/10/26 08:37:59;;;;;;;16.80;7.47;;;11.60;99.90;;;;;;5010291;28;20026;-73
2023/10/26 08:40:25;;;;;;;7.05;3.20;;;11.60;99.90;;;;;;4991401;28;20041;-73
2023/10/26 08:42:51;;;;;;;5.50;2.85;;;11.60;99.90;;;;;;5009181;28;20057;-72
2023/10/26 08:45:22;;;;;;;7.68;3.47;;;11.60;99.90;;;;;;5010150;28;20033;-72
2023/10/26 08:47:49;;;;;;;;;;;11.70;99.90;;;;;;5010191;28;20402;-75
2023/10/26 08:50:15;;;;;;;5.45;1.65;;;11.80;99.90;;;;;;5007821;28;20007;-72
2023/10/26 08:52:44;;;;;;;2.65;1.40;;;11.80;99.90;;;;;;4991442;28;20104;-73
2023/10/26 08:55:10;;;;;;;4.28;1.45;;;11.80;99.90;;;;;;5009858;28;20026;-72
2023/10/26 08:57:46;;;;;;;4.30;1.35;;;11.80;99.90;;;;;;5008586;28;20022;-71
2023/10/26 09:00:12;;;;;;;4.35;1.50;;;11.80;99.90;;;;;;5008466;28;20026;-73
2023/10/26 09:02:38;;;;;;;7.15;1.60;;;11.80;99.90;;;;;;5018350;28;20029;-72
2023/10/26 09:05:04;;;;;;;5.57;1.58;;;11.80;99.90;;;;;;5012993;28;20390;-72
2023/10/26 09:07:30;;;;;;;2.60;1.25;;;11.90;99.90;;;;;;5008474;28;20455;-73
2023/10/26 09:09:56;;;;;;;5.38;1.95;;;11.80;99.90;;;;;;4991921;28;20386;-73
2023/10/26 09:12:22;;;;;;;2.60;1.15;;;11.80;99.90;;;;;;4990773;28;20040;-72
2023/10/26 09:15:10;;;;;;;3.97;1.10;;;11.80;99.90;;;;;;5008624;28;20852;-72
2023/10/26 09:17:36;;;;;;;3.47;0.98;;;11.80;99.90;;;;;;4992149;28;20034;-73
2023/10/26 09:20:23;;;;;;;6.97;2.25;;;11.80;99.90;;;;;;5008550;28;20057;-73
2023/10/26 09:22:48;;;;;;;3.42;0.73;;;11.80;99.90;;;;;;5011498;28;20033;-72
2023/10/26 09:25:14;;;;;;;4.35;1.10;;;11.90;99.90;;;;;;4986274;28;20381;-71
2023/10/26 09:27:42;;;;;;;2.35;0.70;;;11.90;99.90;;;;;;5008365;28;20022;-73
2023/10/26 09:30:32;;;;;;;1.88;0.70;;;12.00;99.90;;;;;;5009211;28;20080;-71
2023/10/26 09:32:59;;;;;;;3.60;0.70;;;12.00;99.90;;;;;;5009515;28;20041;-72
2023/10/26 09:35:29;;;;;;;1.80;0.50;;;12.00;99.90;;;;;;5006040;28;20520;-69
2023/10/26 09:37:55;;;;;;;5.57;0.60;;;12.10;99.90;;;;;;5008993;28;20033;-69
2023/10/26 09:40:21;;;;;;;1.90;0.32;;;12.10;99.90;;;;;;5008520;28;20030;-72
2023/10/26 09:42:48;;;;;;;1.15;0.40;;;12.20;99.90;;;;;;5008827;28;20088;-72
2023/10/26 09:45:16;;;;;;;1.42;0.50;;;12.20;99.90;;;;;;5009283;28;20538;-70
2023/10/26 09:47:41;;;;;;;1.10;0.25;;;12.20;99.90;;;;;;5011252;28;20026;-72
2023/10/26 09:50:08;;;;;;;2.35;0.30;;;12.20;99.90;;;;;;5012041;28;20144;-74
2023/10/26 09:52:35;;;;;;;1.35;0.25;;;12.20;99.90;;;;;;5009404;28;20123;-73
2023/10/26 09:55:02;;;;;;;3.60;0.30;;;12.30;99.90;;;;;;5014165;28;20053;-73
2023/10/26 09:57:33;;;;;;;2.42;0.20;;;12.30;99.90;;;;;;5008832;28;20069;-72
2023/10/26 10:00:00;;;;;;;3.30;0.20;;;12.30;99.90;;;;;;5009606;28;20076;-71
2023/10/26 10:02:26;;;;;;;0.82;0.20;;;12.10;99.90;;;;;;4999320;28;20061;-71
2023/10/26 10:04:51;;;;;;;1.73;0.20;;;12.10;99.90;;;;;;5001968;28;22482;-71
2023/10/26 10:07:18;;;;;;;1.27;0.10;;;12.00;99.90;;;;;;5004107;28;20041;-70
2023/10/26 10:10:11;;;;;;;1.55;0.15;;;12.00;99.90;;;;;;4990441;28;20467;-70
2023/10/26 10:12:38;;;;;;;4.10;0.28;;;12.00;99.90;;;;;;5001468;28;20140;-70
2023/10/26 10:15:13;;;;;;;1.85;0.10;;;11.90;99.90;;;;;;5006904;28;20240;-70
2023/10/26 10:17:45;;;;;;;0.85;0.10;;;11.90;99.90;;;;;;5007156;28;20152;-71
2023/10/26 10:20:19;;;;;;;0.30;0.13;;;11.80;99.90;;;;;;5006841;28;20119;-70
2023/10/26 10:22:46;;;;;;;0.80;0.17;;;11.70;99.90;;;;;;5007927;28;20038;-71
2023/10/26 10:25:13;;;;;;;0.32;0.10;;;11.60;99.90;;;;;;5007503;28;20113;-70
2023/10/26 10:27:39;;;;;;;2.95;0.20;;;11.50;99.90;;;;;;5007288;28;20045;-71
2023/10/26 10:30:08;;;;;;;1.40;0.35;;;11.50;99.90;;;;;;5007566;28;20048;-71
2023/10/26 10:33:01;;;;;;;0.47;0.20;;;11.40;99.90;;;;;;5003296;28;20104;-72
2023/10/26 10:35:46;;;;;;;0.40;0.20;;;11.40;99.90;;;;;;5004006;28;20121;-73
2023/10/26 10:38:18;;;;;;;1.10;0.30;;;11.40;99.90;;;;;;5006382;28;20512;-73
2023/10/26 10:40:59;;;;;;;0.95;0.20;;;11.30;99.90;;;;;;4989575;28;20048;-73
2023/10/26 10:43:35;;;;;;;0.88;0.28;;;11.30;99.90;;;;;;5006619;28;20045;-71
2023/10/26 10:46:27;;;;;;;1.10;0.40;;;11.30;99.90;;;;;;5006856;28;20042;-71
2023/10/26 10:49:03;;;;;;;6.65;0.65;;;11.40;99.90;;;;;;4979348;28;20406;-70
2023/10/26 10:51:34;;;;;;;2.10;0.50;;;11.40;99.90;;;;;;4992887;28;20037;-76
2023/10/26 10:54:03;;;;;;;1.30;0.28;;;11.40;99.90;;;;;;5011812;28;20064;-72
2023/10/26 10:56:34;;;;;;;5.82;3.35;;;11.50;99.90;;;;;;5021585;28;20044;-71
2023/10/26 10:59:00;;;;;;;12.77;7.05;;;11.50;99.90;;;;;;5011526;28;20471;-71
2023/10/26 11:01:27;;;;;;;5.18;2.20;;;11.60;99.90;;;;;;5010785;28;20040;-72
2023/10/26 11:04:03;;;;;;;1.77;1.10;;;11.70;99.90;;;;;;5014870;28;20042;-72
2023/10/26 11:06:29;;;;;;;2.88;0.30;;;11.60;99.90;;;;;;4992780;28;20107;-73
2023/10/26 11:08:54;;;;;;;0.80;0.40;;;11.70;99.90;;;;;;4986115;28;20077;-72
2023/10/26 11:11:28;;;;;;;1.92;0.95;;;11.70;99.90;;;;;;4992282;28;20514;-73
2023/10/26 11:14:07;;;;;;;6.07;4.43;;;11.70;99.90;;;;;;4979257;28;20049;-73
2023/10/26 11:16:34;;;;;;;19.50;10.83;;;11.80;99.90;;;;;;5010558;28;20042;-74
2023/10/26 11:19:01;;;;;;;7.00;2.67;;;11.70;99.90;;;;;;4992919;28;20028;-72
2023/10/26 11:21:26;;;;;;;8.15;2.10;;;11.70;99.90;;;;;;5010153;28;20041;-73
2023/10/26 11:23:52;;;;;;;3.22;1.92;;;11.70;99.90;;;;;;5011178;28;20041;-70
2023/10/26 11:26:18;;;;;;;3.47;1.90;;;11.70;99.90;;;;;;5018105;28;20439;-72
2023/10/26 11:28:43;;;;;;;5.97;2.85;;;11.80;99.90;;;;;;5004024;28;20044;-70
2023/10/26 11:31:09;;;;;;;2.90;2.28;;;11.80;99.90;;;;;;4993456;28;20072;-70
2023/10/26 11:33:37;;;;;;;5.15;2.15;;;11.80;99.90;;;;;;5020878;28;20470;-70
2023/10/26 11:36:09;;;;;;;3.05;1.65;;;11.80;99.90;;;;;;5011173;28;20080;-72
2023/10/26 11:38:51;;;;;;;6.30;3.70;;;11.80;99.90;;;;;;5010202;28;20034;-72
2023/10/26 11:41:24;;;;;;;5.65;2.58;;;11.90;99.90;;;;;;4993120;28;20374;-70
2023/10/26 11:43:49;;;;;;;4.40;2.83;;;11.90;99.90;;;;;;4992235;28;20038;-70
2023/10/26 11:46:15;;;;;;;6.55;3.67;;;11.90;99.90;;;;;;5010435;28;20402;-70
2023/10/26 11:48:41;;;;;;;6.65;4.10;;;12.00;99.90;;;;;;5009369;28;20389;-72
2023/10/26 11:51:07;;;;;;;4.75;2.63;;;12.00;99.90;;;;;;5011075;28;20040;-72
2023/10/26 11:53:34;;;;;;;4.30;2.65;;;12.00;99.90;;;;;;5009788;28;20038;-72
2023/10/26 11:56:00;;;;;;;5.22;3.70;;;12.10;99.90;;;;;;5010866;28;20029;-72
2023/10/26 11:58:25;;;;;;;5.00;2.00;;;12.10;99.90;;;;;;5010293;28;20084;-73
2023/10/26 12:00:51;;;;;;;4.00;2.22;;;12.10;99.90;;;;;;5009404;28;20038;-74
2023/10/26 12:03:17;;;;;;;4.90;1.88;;;12.00;99.90;;;;;;5009991;28;20064;-72
2023/10/26 12:05:42;;;;;;;3.28;1.80;;;12.00;99.90;;;;;;5010033;28;20383;-72
2023/10/26 12:08:08;;;;;;;3.50;1.60;;;11.90;99.90;;;;;;5010456;28;20034;-74
2023/10/26 12:10:34;;;;;;;4.25;1.98;;;12.00;99.90;;;;;;5009388;28;20037;-73
2023/10/26 12:13:00;;;;;;;3.42;1.25;;;11.90;99.90;;;;;;5009611;28;20046;-72
2023/10/26 12:15:26;;;;;;;3.90;0.95;;;12.00;99.90;;;;;;5010299;28;20375;-72
2023/10/26 12:17:52;;;;;;;2.55;1.10;;;12.00;99.90;;;;;;5008931;28;20037;-70
2023/10/26 12:20:18;;;;;;;2.88;1.38;;;12.00;99.90;;;;;;5010504;28;20037;-71
2023/10/26 12:22:44;;;;;;;2.55;1.00;;;12.10;99.90;;;;;;5008844;28;20484;-72
2023/10/26 12:25:10;;;;;;;1.63;0.70;;;12.10;99.90;;;;;;4992395;28;20356;-70
2023/10/26 12:27:37;;;;;;;4.47;1.08;;;12.00;99.90;;;;;;5009119;28;20482;-71
2023/10/26 12:30:03;;;;;;;1.65;0.82;;;11.90;99.90;;;;;;5010290;28;20482;-71
2023/10/26 12:32:30;;;;;;;2.80;0.88;;;11.90;99.90;;;;;;5009300;28;20091;-74
2023/10/26 12:34:56;;;;;;;2.10;0.90;;;11.80;99.90;;;;;;5015753;28;20092;-71
2023/10/26 12:37:21;;;;;;;3.42;0.95;;;11.80;99.90;;;;;;5013013;28;20025;-71
2023/10/26 12:39:47;;;;;;;1.33;0.65;;;11.90;99.90;;;;;;4991527;28;20593;-71
2023/10/26 12:42:13;;;;;;;1.73;1.00;;;12.10;99.90;;;;;;5009781;28;20787;-73
2023/10/26 12:44:39;;;;;;;1.80;1.00;;;12.10;99.90;;;;;;4992800;28;20454;-71
2023/10/26 12:47:05;;;;;;;1.63;1.05;;;12.30;99.90;;;;;;5024531;28;20440;-71